Time;durP1;ratioP1;P1;durP2;ratioP2;P2;SDS_P1;SDS_P2;PMS_P1;PMS_P2;Temp;Humidity;BMP_temperature;BMP_pressure;BME280_temperature;BME280_humidity;BME280_pressure;Samples;Min_cycle;Max_cycle;Signal;HPM_P1;HPM_P2
2022/09/21 00:00:47;;;;;;;2.38;0.95;;;12.30;99.90;;;;;;5045475;28;20060;-35
2022/09/21 00:03:14;;;;;;;4.40;0.90;;;12.30;99.90;;;;;;5044041;28;20132;-33
2022/09/21 00:05:40;;;;;;;1.45;0.70;;;12.30;99.90;;;;;;5045405;28;20021;-33
2022/09/21 00:08:07;;;;;;;3.60;0.73;;;12.30;99.90;;;;;;5045487;28;20079;-34
2022/09/21 00:10:33;;;;;;;3.08;0.80;;;12.30;99.90;;;;;;5044510;28;20025;-32
2022/09/21 00:13:01;;;;;;;4.40;0.80;;;12.30;99.90;;;;;;5045326;28;20025;-33
2022/09/21 00:15:28;;;;;;;2.13;0.80;;;12.30;99.90;;;;;;5045050;28;20019;-34
2022/09/21 00:17:54;;;;;;;1.60;0.70;;;12.30;99.90;;;;;;5044379;28;20171;-34
2022/09/21 00:20:20;;;;;;;2.60;0.77;;;12.40;99.90;;;;;;5044614;28;20713;-33
2022/09/21 00:22:47;;;;;;;2.47;0.90;;;12.40;99.90;;;;;;5045571;28;20056;-34
2022/09/21 00:25:13;;;;;;;1.40;0.73;;;12.40;99.90;;;;;;5043622;28;20433;-34
2022/09/21 00:27:38;;;;;;;1.77;0.80;;;12.40;99.90;;;;;;5045183;28;20036;-34
2022/09/21 00:30:05;;;;;;;3.88;0.93;;;12.40;99.90;;;;;;5044624;28;20017;-34
2022/09/21 00:32:33;;;;;;;3.95;1.23;;;12.40;99.90;;;;;;5044289;28;20017;-36
2022/09/21 00:35:01;;;;;;;4.18;0.90;;;12.40;99.90;;;;;;5045022;28;20104;-33
2022/09/21 00:37:27;;;;;;;2.13;1.02;;;12.40;99.90;;;;;;5044575;28;20078;-34
2022/09/21 00:39:53;;;;;;;2.80;0.82;;;12.30;99.90;;;;;;5044298;28;20106;-34
2022/09/21 00:42:28;;;;;;;2.70;0.95;;;12.30;99.90;;;;;;5043245;28;20268;-34
2022/09/21 00:44:54;;;;;;;2.70;0.90;;;12.30;99.90;;;;;;5043943;28;20029;-34
2022/09/21 00:47:52;;;;;;;1.60;0.70;;;12.20;99.90;;;;;;5043990;28;20032;-34
2022/09/21 00:50:22;;;;;;;1.60;0.93;;;12.20;99.90;;;;;;5031334;28;20039;-33
2022/09/21 00:52:54;;;;;;;2.85;0.70;;;12.10;99.90;;;;;;5043699;28;20052;-34
2022/09/21 00:55:28;;;;;;;2.88;0.80;;;12.10;99.90;;;;;;5043850;28;20075;-33
2022/09/21 00:57:58;;;;;;;1.80;0.70;;;12.10;99.90;;;;;;5043837;28;20116;-35
2022/09/21 01:00:24;;;;;;;2.17;0.85;;;12.10;99.90;;;;;;5043299;28;20053;-34
2022/09/21 01:02:50;;;;;;;3.70;0.90;;;12.00;99.90;;;;;;5043986;28;20029;-34
2022/09/21 01:05:16;;;;;;;2.42;1.10;;;12.00;99.90;;;;;;5043976;28;20033;-34
2022/09/21 01:07:47;;;;;;;2.67;0.80;;;11.90;99.90;;;;;;5043564;28;20021;-34
2022/09/21 01:10:17;;;;;;;1.73;0.90;;;11.90;99.90;;;;;;5024027;28;20128;-35
2022/09/21 01:13:11;;;;;;;2.00;0.90;;;11.90;99.90;;;;;;5039779;28;20028;-34
2022/09/21 01:15:48;;;;;;;3.20;0.80;;;11.80;99.90;;;;;;5024851;28;20035;-34
2022/09/21 01:18:22;;;;;;;2.28;1.00;;;11.80;99.90;;;;;;5041152;28;20025;-34
2022/09/21 01:21:07;;;;;;;2.55;0.90;;;11.80;99.90;;;;;;5043773;28;20064;-35
2022/09/21 01:23:32;;;;;;;1.83;0.80;;;11.70;99.90;;;;;;5046017;28;20044;-34
2022/09/21 01:26:43;;;;;;;3.20;1.00;;;11.70;99.90;;;;;;5049063;28;20025;-35
2022/09/21 01:29:41;;;;;;;2.88;0.80;;;11.70;99.90;;;;;;5045516;28;20037;-35
2022/09/21 01:32:27;;;;;;;4.63;0.90;;;11.70;99.90;;;;;;5034729;28;20028;-35
2022/09/21 01:34:58;;;;;;;2.97;1.00;;;11.60;99.90;;;;;;5037589;28;20052;-35
2022/09/21 01:37:32;;;;;;;2.50;0.70;;;11.60;99.90;;;;;;5047536;28;20028;-35
2022/09/21 01:40:10;;;;;;;2.42;0.73;;;11.60;99.90;;;;;;5037955;28;20118;-34
2022/09/21 01:42:39;;;;;;;1.52;0.68;;;11.60;99.90;;;;;;5046905;28;20036;-33
2022/09/21 01:45:09;;;;;;;1.88;0.73;;;11.50;99.90;;;;;;5037320;28;20268;-34
2022/09/21 01:47:38;;;;;;;4.18;0.98;;;11.50;99.90;;;;;;5047484;28;20513;-33
2022/09/21 01:50:07;;;;;;;2.63;0.82;;;11.40;99.90;;;;;;5047241;28;20033;-35
2022/09/21 01:52:44;;;;;;;2.58;0.73;;;11.40;99.90;;;;;;5047752;28;20115;-34
2022/09/21 01:55:16;;;;;;;2.25;0.95;;;11.40;99.90;;;;;;5046678;28;20020;-35
2022/09/21 01:57:56;;;;;;;3.28;1.00;;;11.40;99.90;;;;;;5047676;28;20029;-34
2022/09/21 02:00:24;;;;;;;2.83;0.80;;;11.30;99.90;;;;;;5046712;28;20068;-35
2022/09/21 02:03:12;;;;;;;1.58;0.85;;;11.30;99.90;;;;;;5046635;28;20508;-35
2022/09/21 02:05:39;;;;;;;2.28;0.70;;;11.30;99.90;;;;;;5047037;28;20043;-34
2022/09/21 02:08:06;;;;;;;2.80;1.00;;;11.20;99.90;;;;;;5047026;28;20025;-34
2022/09/21 02:10:38;;;;;;;4.32;1.20;;;11.20;99.90;;;;;;5047022;28;20025;-35
2022/09/21 02:13:05;;;;;;;3.13;1.20;;;11.20;99.90;;;;;;5048045;28;20538;-34
2022/09/21 02:15:43;;;;;;;3.22;1.00;;;11.10;99.90;;;;;;5047379;28;20024;-34
2022/09/21 02:18:35;;;;;;;4.32;1.30;;;11.10;99.90;;;;;;5046530;28;20053;-34
2022/09/21 02:21:07;;;;;;;4.50;1.60;;;11.10;99.90;;;;;;5045686;28;20041;-34
2022/09/21 02:23:52;;;;;;;2.80;1.88;;;11.00;99.90;;;;;;5047002;28;20497;-34
2022/09/21 02:26:31;;;;;;;3.83;1.75;;;11.00;99.90;;;;;;5046418;28;20075;-35
2022/09/21 02:29:17;;;;;;;4.18;2.20;;;10.90;99.90;;;;;;5047682;28;20031;-35
2022/09/21 02:32:24;;;;;;;3.28;1.50;;;10.90;99.90;;;;;;5036365;28;20107;-35
2022/09/21 02:35:02;;;;;;;3.50;1.80;;;10.90;99.90;;;;;;5033210;28;20124;-33
2022/09/21 02:37:36;;;;;;;3.72;1.50;;;10.90;99.90;;;;;;5045755;28;20035;-35
2022/09/21 02:40:25;;;;;;;2.08;1.25;;;10.90;99.90;;;;;;5046672;28;20048;-34
2022/09/21 02:42:57;;;;;;;2.38;1.40;;;10.80;99.90;;;;;;5046739;28;20076;-34
2022/09/21 02:45:27;;;;;;;2.00;1.05;;;10.80;99.90;;;;;;5045110;28;20033;-34
2022/09/21 02:47:59;;;;;;;2.80;1.00;;;10.80;99.90;;;;;;5046942;28;20032;-34
2022/09/21 02:50:34;;;;;;;2.05;1.00;;;10.70;99.90;;;;;;5045853;28;20376;-34
2022/09/21 02:53:03;;;;;;;3.08;1.10;;;10.70;99.90;;;;;;5046072;28;20452;-35
2022/09/21 02:55:31;;;;;;;2.53;0.95;;;10.70;99.90;;;;;;5046203;28;20021;-34
2022/09/21 02:57:57;;;;;;;1.95;0.93;;;10.70;99.90;;;;;;5046826;28;20036;-34
2022/09/21 03:00:23;;;;;;;1.80;0.80;;;10.70;99.90;;;;;;5044623;28;20249;-34
2022/09/21 03:02:48;;;;;;;2.42;1.00;;;10.60;99.90;;;;;;5046813;28;20037;-35
2022/09/21 03:05:14;;;;;;;2.17;0.93;;;10.60;99.90;;;;;;5045867;28;20476;-39
2022/09/21 03:07:40;;;;;;;3.25;1.05;;;10.60;99.90;;;;;;5045401;28;20074;-34
2022/09/21 03:10:07;;;;;;;4.20;1.25;;;10.60;99.90;;;;;;5046032;28;20027;-34
2022/09/21 03:12:33;;;;;;;1.90;1.10;;;10.50;99.90;;;;;;5042157;28;20020;-34
2022/09/21 03:14:59;;;;;;;5.47;1.67;;;10.50;99.90;;;;;;5046105;28;20079;-34
2022/09/21 03:17:24;;;;;;;1.77;0.80;;;10.50;99.90;;;;;;5045284;28;20036;-34
2022/09/21 03:19:53;;;;;;;3.85;0.77;;;10.40;99.90;;;;;;5045779;28;20025;-33
2022/09/21 03:22:20;;;;;;;3.10;1.00;;;10.40;99.90;;;;;;5045069;28;20495;-35
2022/09/21 03:24:46;;;;;;;2.55;0.73;;;10.30;99.90;;;;;;5045854;28;20049;-35
2022/09/21 03:27:16;;;;;;;1.15;0.70;;;10.30;99.90;;;;;;5044320;28;20538;-34
2022/09/21 03:29:42;;;;;;;2.90;0.68;;;10.20;99.90;;;;;;5045774;28;20813;-34
2022/09/21 03:32:08;;;;;;;2.90;0.70;;;10.20;99.90;;;;;;5044795;28;20021;-35
2022/09/21 03:34:34;;;;;;;1.65;0.82;;;10.20;99.90;;;;;;5045521;28;20029;-34
2022/09/21 03:37:02;;;;;;;1.92;0.80;;;10.20;99.90;;;;;;5045504;28;20032;-35
2022/09/21 03:39:27;;;;;;;1.30;0.70;;;10.20;99.90;;;;;;5044846;28;20025;-34
2022/09/21 03:41:56;;;;;;;2.60;0.73;;;10.20;99.90;;;;;;5044531;28;20495;-34
2022/09/21 03:44:25;;;;;;;3.83;0.90;;;10.20;99.90;;;;;;5045102;28;20468;-34
2022/09/21 03:46:52;;;;;;;1.65;0.85;;;10.20;99.90;;;;;;5045412;28;20029;-34
2022/09/21 03:49:18;;;;;;;2.20;0.80;;;10.20;99.90;;;;;;5044530;28;20440;-35
2022/09/21 03:51:44;;;;;;;3.10;0.90;;;10.20;99.90;;;;;;5045655;28;20669;-34
2022/09/21 03:54:09;;;;;;;2.83;0.95;;;10.20;99.90;;;;;;5045063;28;20036;-34
2022/09/21 03:56:35;;;;;;;2.05;0.70;;;10.20;99.90;;;;;;5044813;28;20032;-34
2022/09/21 03:59:01;;;;;;;3.67;0.75;;;10.10;99.90;;;;;;5045169;28;20587;-35
2022/09/21 04:01:27;;;;;;;1.92;0.82;;;10.10;99.90;;;;;;5045075;28;20075;-34
2022/09/21 04:03:52;;;;;;;1.30;0.60;;;10.10;99.90;;;;;;5044608;28;20045;-35
2022/09/21 04:06:18;;;;;;;1.73;0.70;;;10.10;99.90;;;;;;5044778;28;20091;-36
2022/09/21 04:08:43;;;;;;;3.58;0.70;;;10.10;99.90;;;;;;5043920;28;20578;-34
2022/09/21 04:11:11;;;;;;;1.85;0.80;;;10.10;99.90;;;;;;5044837;28;20484;-34
2022/09/21 04:13:36;;;;;;;2.60;0.80;;;10.10;99.90;;;;;;5044967;28;20578;-34
2022/09/21 04:16:02;;;;;;;4.68;0.80;;;10.00;99.90;;;;;;5044451;28;20374;-35
2022/09/21 04:18:28;;;;;;;2.70;0.93;;;10.00;99.90;;;;;;5044206;28;20032;-34
2022/09/21 04:20:53;;;;;;;1.48;0.65;;;10.00;99.90;;;;;;5044472;28;20064;-35
2022/09/21 04:23:19;;;;;;;3.08;0.80;;;10.00;99.90;;;;;;5043426;28;20574;-34
2022/09/21 04:25:47;;;;;;;2.13;0.60;;;10.00;99.90;;;;;;5045278;28;20408;-35
2022/09/21 04:28:13;;;;;;;3.55;0.77;;;10.00;99.90;;;;;;5044584;28;20044;-34
2022/09/21 04:30:39;;;;;;;2.97;0.80;;;9.90;99.90;;;;;;5044407;28;20021;-35
2022/09/21 04:33:04;;;;;;;1.70;0.52;;;9.90;99.90;;;;;;5044696;28;20496;-35
2022/09/21 04:35:30;;;;;;;1.25;0.60;;;9.90;99.90;;;;;;5043928;28;20468;-35
2022/09/21 04:37:56;;;;;;;1.23;0.60;;;9.90;99.90;;;;;;5043631;28;20025;-33
2022/09/21 04:40:22;;;;;;;2.20;0.55;;;9.90;99.90;;;;;;5043640;28;20013;-34
2022/09/21 04:42:52;;;;;;;1.40;0.60;;;9.80;99.90;;;;;;5045274;28;20037;-34
2022/09/21 04:45:18;;;;;;;2.22;1.25;;;9.90;99.90;;;;;;5043155;28;20127;-34
2022/09/21 04:47:44;;;;;;;2.42;0.90;;;9.80;99.90;;;;;;5044596;28;20025;-35
2022/09/21 04:50:10;;;;;;;1.73;0.80;;;9.80;99.90;;;;;;5044304;28;20047;-34
2022/09/21 04:52:35;;;;;;;2.65;1.05;;;9.80;99.90;;;;;;5043841;28;20396;-34
2022/09/21 04:55:01;;;;;;;3.70;0.80;;;9.80;99.90;;;;;;5044003;28;20033;-35
2022/09/21 04:57:26;;;;;;;2.58;1.17;;;9.70;99.90;;;;;;5043758;28;20060;-35
2022/09/21 04:59:52;;;;;;;5.88;1.48;;;9.70;99.90;;;;;;5047369;28;20059;-34
2022/09/21 05:02:18;;;;;;;2.05;1.50;;;9.70;99.90;;;;;;5047864;28;20421;-35
2022/09/21 05:04:43;;;;;;;2.75;1.52;;;9.70;99.90;;;;;;5048930;28;20029;-35
2022/09/21 05:07:09;;;;;;;4.07;1.17;;;9.70;99.90;;;;;;5047135;28;20047;-34
2022/09/21 05:12:18;;;;;;;2.75;1.02;;;9.70;99.90;;;;;;5047241;28;20043;-33
2022/09/21 05:14:44;;;;;;;2.40;1.02;;;9.70;99.90;;;;;;5048533;28;20024;-35
2022/09/21 05:17:11;;;;;;;2.42;0.90;;;9.70;99.90;;;;;;5048193;28;20115;-35
2022/09/21 05:19:37;;;;;;;1.73;0.73;;;9.60;99.90;;;;;;5047301;28;20028;-35
2022/09/21 05:22:02;;;;;;;3.08;1.00;;;9.60;99.90;;;;;;5048053;28;20017;-35
2022/09/21 05:24:28;;;;;;;2.97;0.93;;;9.60;99.90;;;;;;5047516;28;20107;-34
2022/09/21 05:26:53;;;;;;;2.15;0.70;;;9.60;99.90;;;;;;5047565;28;20052;-34
2022/09/21 05:29:19;;;;;;;2.08;0.90;;;9.60;99.90;;;;;;5047702;28;20028;-33
2022/09/21 05:31:50;;;;;;;3.55;1.10;;;9.50;99.90;;;;;;5048227;28;20036;-34
2022/09/21 05:34:54;;;;;;;1.67;1.00;;;9.60;99.90;;;;;;5046818;28;20068;-34
2022/09/21 05:37:33;;;;;;;2.55;0.93;;;9.50;99.90;;;;;;5047540;28;20029;-34
2022/09/21 05:39:58;;;;;;;4.38;1.10;;;9.50;99.90;;;;;;5047838;28;20029;-35
2022/09/21 05:42:24;;;;;;;1.23;0.70;;;9.50;99.90;;;;;;5046351;28;20507;-34
2022/09/21 05:44:50;;;;;;;1.73;0.93;;;9.50;99.90;;;;;;5061796;28;20066;-34
2022/09/21 05:47:25;;;;;;;2.25;1.30;;;9.50;99.90;;;;;;5045426;28;20464;-34
2022/09/21 05:50:13;;;;;;;3.65;1.33;;;9.40;99.90;;;;;;5046736;28;20037;-34
2022/09/21 05:53:03;;;;;;;3.10;1.08;;;9.40;99.90;;;;;;5044113;28;20041;-34
2022/09/21 05:55:34;;;;;;;4.15;1.20;;;9.40;99.90;;;;;;5045004;28;20021;-35
2022/09/21 05:58:20;;;;;;;1.70;1.08;;;9.40;99.90;;;;;;5046589;28;20028;-35
2022/09/21 06:01:35;;;;;;;1.38;1.27;;;9.40;99.90;;;;;;5046557;28;20711;-36
2022/09/21 06:04:02;;;;;;;2.47;1.20;;;9.30;99.90;;;;;;5037789;28;20712;-35
2022/09/21 06:06:27;;;;;;;3.33;1.13;;;9.30;99.90;;;;;;5045686;28;20017;-35
2022/09/21 06:08:53;;;;;;;1.85;1.30;;;9.30;99.90;;;;;;5046039;28;20612;-35
2022/09/21 06:11:19;;;;;;;4.97;1.52;;;9.30;99.90;;;;;;5045651;28;20044;-35
2022/09/21 06:13:45;;;;;;;3.80;1.52;;;9.30;99.90;;;;;;5046563;28;20039;-35
2022/09/21 06:16:10;;;;;;;4.40;1.38;;;9.30;99.90;;;;;;5044743;28;20429;-35
2022/09/21 06:18:39;;;;;;;2.58;1.25;;;9.40;99.90;;;;;;5046300;28;20441;-34
2022/09/21 06:21:06;;;;;;;4.25;1.20;;;9.40;99.90;;;;;;5046576;28;20025;-35
2022/09/21 06:23:32;;;;;;;3.20;1.45;;;9.50;99.90;;;;;;5045034;28;20029;-34
2022/09/21 06:25:57;;;;;;;3.63;1.60;;;9.50;99.90;;;;;;5046214;28;20099;-35
2022/09/21 06:28:26;;;;;;;2.88;1.50;;;9.60;99.90;;;;;;5045872;28;20040;-35
2022/09/21 06:30:56;;;;;;;4.57;1.80;;;9.60;99.90;;;;;;5045443;28;20025;-35
2022/09/21 06:33:24;;;;;;;2.75;1.90;;;9.60;99.90;;;;;;5045602;28;20472;-35
2022/09/21 06:35:58;;;;;;;3.55;1.60;;;9.70;99.90;;;;;;5045463;28;20306;-35
2022/09/21 06:38:25;;;;;;;2.10;1.50;;;9.70;99.90;;;;;;5044914;28;20155;-34
2022/09/21 06:40:51;;;;;;;2.40;1.58;;;9.80;99.90;;;;;;5045870;28;20025;-34
2022/09/21 06:43:17;;;;;;;2.90;2.00;;;9.80;99.90;;;;;;5044404;28;20033;-35
2022/09/21 06:45:43;;;;;;;2.97;1.90;;;9.90;99.90;;;;;;5045979;28;20017;-36
2022/09/21 06:48:08;;;;;;;3.15;1.90;;;9.90;99.90;;;;;;5045819;28;20186;-35
2022/09/21 06:50:34;;;;;;;3.10;1.88;;;9.90;99.90;;;;;;5045879;28;20472;-35
2022/09/21 06:53:01;;;;;;;2.03;1.80;;;9.90;99.90;;;;;;5046720;28;20529;-35
2022/09/21 06:55:28;;;;;;;2.95;2.00;;;10.00;99.90;;;;;;5045703;28;20021;-36
2022/09/21 06:58:02;;;;;;;4.07;1.55;;;10.10;99.90;;;;;;5045914;28;20017;-35
2022/09/21 07:00:28;;;;;;;3.83;2.08;;;10.10;99.90;;;;;;5045450;28;20499;-35
2022/09/21 07:02:54;;;;;;;3.65;1.80;;;10.10;99.90;;;;;;5046563;28;20033;-36
2022/09/21 07:05:19;;;;;;;2.33;1.77;;;10.20;99.90;;;;;;5045278;28;20025;-35
2022/09/21 07:07:48;;;;;;;2.85;1.63;;;10.20;99.90;;;;;;5046301;28;20431;-35
2022/09/21 07:10:13;;;;;;;3.80;1.65;;;10.30;99.90;;;;;;5045277;28;20026;-34
2022/09/21 07:12:40;;;;;;;3.75;1.80;;;10.30;99.90;;;;;;5045311;28;20519;-35
2022/09/21 07:15:06;;;;;;;3.25;1.88;;;10.40;99.90;;;;;;5046618;28;20033;-40
2022/09/21 07:17:33;;;;;;;2.50;1.90;;;10.40;99.90;;;;;;5046383;28;20057;-36
2022/09/21 07:20:00;;;;;;;3.45;1.75;;;10.40;99.90;;;;;;5045157;28;20025;-35
2022/09/21 07:22:28;;;;;;;2.90;1.80;;;10.50;99.90;;;;;;5045106;28;20032;-35
2022/09/21 07:24:53;;;;;;;5.25;1.90;;;10.50;99.90;;;;;;5045346;28;20037;-36
2022/09/21 07:27:19;;;;;;;4.38;2.42;;;10.50;99.90;;;;;;5045230;28;20037;-35
2022/09/21 07:29:44;;;;;;;3.60;1.98;;;10.60;99.90;;;;;;5045715;28;20178;-36
2022/09/21 07:32:12;;;;;;;4.80;2.30;;;10.60;99.90;;;;;;5044915;28;20129;-36
2022/09/21 07:34:38;;;;;;;4.07;2.22;;;10.70;99.90;;;;;;5043999;28;20020;-35
2022/09/21 07:37:03;;;;;;;4.90;2.17;;;10.70;99.90;;;;;;5045616;28;20029;-35
2022/09/21 07:39:29;;;;;;;4.97;2.47;;;10.80;99.90;;;;;;5044617;28;20043;-35
2022/09/21 07:41:57;;;;;;;6.90;2.42;;;10.80;99.90;;;;;;5044601;28;20032;-36
2022/09/21 07:44:23;;;;;;;4.38;2.33;;;10.90;99.90;;;;;;5044714;28;20041;-36
2022/09/21 07:46:49;;;;;;;3.97;2.20;;;11.00;99.90;;;;;;5044795;28;20025;-35
2022/09/21 07:49:17;;;;;;;5.53;2.40;;;11.00;99.90;;;;;;5044740;28;20063;-35
2022/09/21 07:51:43;;;;;;;3.55;2.20;;;11.00;99.90;;;;;;5044514;28;20088;-35
2022/09/21 07:54:09;;;;;;;5.35;2.55;;;11.10;99.90;;;;;;5044757;28;20063;-35
2022/09/21 07:56:38;;;;;;;3.10;2.13;;;11.10;99.90;;;;;;5045571;28;20021;-35
2022/09/21 07:59:04;;;;;;;4.30;2.10;;;11.20;99.90;;;;;;5044649;28;20064;-35
2022/09/21 08:01:31;;;;;;;3.65;2.22;;;11.20;99.90;;;;;;5041123;28;20036;-35
2022/09/21 08:03:58;;;;;;;3.80;2.08;;;11.30;99.90;;;;;;5044836;28;20033;-36
2022/09/21 08:06:26;;;;;;;6.22;2.92;;;11.30;99.90;;;;;;5043913;28;20020;-34
2022/09/21 08:08:52;;;;;;;4.95;2.40;;;11.40;99.90;;;;;;5044332;28;20108;-35
2022/09/21 08:11:21;;;;;;;4.53;2.22;;;11.40;99.90;;;;;;5044086;28;20025;-35
2022/09/21 08:13:47;;;;;;;2.25;1.70;;;11.50;99.90;;;;;;5044531;28;20035;-34
2022/09/21 08:16:13;;;;;;;4.53;1.85;;;11.50;99.90;;;;;;5043993;28;20017;-35
2022/09/21 08:18:40;;;;;;;2.85;2.00;;;11.60;99.90;;;;;;5045205;28;20029;-34
2022/09/21 08:21:07;;;;;;;2.15;1.75;;;11.70;99.90;;;;;;5044645;28;20020;-34
2022/09/21 08:23:33;;;;;;;2.42;1.65;;;11.70;99.90;;;;;;5044253;28;20122;-34
2022/09/21 08:26:00;;;;;;;3.60;1.90;;;11.80;99.90;;;;;;5044391;28;20092;-35
2022/09/21 08:28:27;;;;;;;4.50;1.67;;;11.90;99.90;;;;;;5044133;28;20025;-36
2022/09/21 08:30:53;;;;;;;3.42;1.50;;;11.90;99.90;;;;;;5044163;28;20021;-35
2022/09/21 08:33:19;;;;;;;3.50;1.73;;;12.00;99.90;;;;;;5043251;28;20129;-35
2022/09/21 08:35:55;;;;;;;1.60;1.40;;;12.00;99.90;;;;;;5045039;28;20074;-35
2022/09/21 08:38:21;;;;;;;2.28;1.20;;;12.00;99.90;;;;;;5043386;28;20116;-35
2022/09/21 08:40:48;;;;;;;4.95;1.73;;;12.10;99.90;;;;;;5045333;28;20031;-32
2022/09/21 08:43:29;;;;;;;3.28;1.48;;;12.10;99.90;;;;;;5041348;28;20040;-34
2022/09/21 08:45:57;;;;;;;2.72;1.58;;;12.20;99.90;;;;;;5044967;28;20098;-35
2022/09/21 08:48:27;;;;;;;3.17;1.60;;;12.20;99.90;;;;;;5043955;28;20067;-35
2022/09/21 08:50:56;;;;;;;3.17;1.33;;;12.20;99.90;;;;;;5043900;28;20079;-35
2022/09/21 08:53:30;;;;;;;2.55;1.70;;;12.30;99.90;;;;;;5043400;28;20029;-35
2022/09/21 08:55:56;;;;;;;3.97;1.80;;;12.40;99.90;;;;;;5044361;28;20025;-35
2022/09/21 08:58:24;;;;;;;2.55;2.00;;;12.40;99.90;;;;;;5042926;28;20116;-34
2022/09/21 09:01:05;;;;;;;6.47;1.98;;;12.40;99.90;;;;;;5044866;28;20060;-34
2022/09/21 09:03:53;;;;;;;2.92;1.60;;;12.50;99.90;;;;;;5043994;28;20079;-34
2022/09/21 09:06:37;;;;;;;6.05;1.67;;;12.50;99.90;;;;;;5023825;28;20096;-35
2022/09/21 09:09:18;;;;;;;3.22;1.50;;;12.60;99.90;;;;;;5043430;28;20174;-35
2022/09/21 09:11:47;;;;;;;3.95;1.40;;;12.60;99.90;;;;;;5044727;28;20029;-35
2022/09/21 09:14:35;;;;;;;3.25;1.42;;;12.70;99.90;;;;;;5044131;28;20040;-36
2022/09/21 09:17:04;;;;;;;1.98;1.10;;;12.70;99.90;;;;;;5041755;28;20037;-34
2022/09/21 09:19:38;;;;;;;2.33;1.23;;;12.80;99.90;;;;;;5043109;28;20024;-35
2022/09/21 09:22:09;;;;;;;4.22;1.30;;;12.90;99.90;;;;;;5045305;28;20109;-35
2022/09/21 09:24:56;;;;;;;3.50;1.45;;;12.90;99.90;;;;;;5044572;28;20083;-35
2022/09/21 09:27:31;;;;;;;5.47;1.23;;;13.00;99.90;;;;;;5043405;28;20033;-35
2022/09/21 09:29:59;;;;;;;2.53;1.00;;;13.00;99.90;;;;;;5044024;28;20793;-35
2022/09/21 09:32:39;;;;;;;2.30;1.10;;;13.00;99.90;;;;;;5043861;28;20030;-35
2022/09/21 09:35:32;;;;;;;1.77;0.80;;;13.00;99.90;;;;;;5044385;28;20032;-35
2022/09/21 09:38:20;;;;;;;3.03;1.20;;;13.10;99.90;;;;;;5044232;28;20033;-34
2022/09/21 09:41:01;;;;;;;3.10;1.05;;;13.20;99.90;;;;;;5042581;28;20032;-34
2022/09/21 09:43:42;;;;;;;2.90;1.08;;;13.20;99.90;;;;;;5043845;28;20044;-34
2022/09/21 09:46:54;;;;;;;1.38;0.70;;;13.30;99.90;;;;;;5036942;28;20029;-34
2022/09/21 09:49:57;;;;;;;1.83;0.80;;;13.30;99.90;;;;;;5041876;28;20033;-35
2022/09/21 09:52:22;;;;;;;1.92;0.70;;;13.40;99.90;;;;;;5046686;28;20037;-35
2022/09/21 09:54:48;;;;;;;2.30;0.73;;;13.40;99.90;;;;;;5046591;28;20031;-37
2022/09/21 09:57:19;;;;;;;1.40;0.57;;;13.50;99.90;;;;;;5046642;28;20021;-36
2022/09/21 09:59:54;;;;;;;1.65;0.68;;;13.60;99.90;;;;;;5047092;28;20143;-34
2022/09/21 10:02:25;;;;;;;1.33;0.57;;;13.70;99.90;;;;;;5046863;28;20021;-35
2022/09/21 10:05:05;;;;;;;2.15;0.73;;;13.80;99.90;;;;;;5047208;28;20033;-34
2022/09/21 10:07:39;;;;;;;2.83;0.65;;;13.80;99.90;;;;;;5046181;28;20032;-36
2022/09/21 10:10:31;;;;;;;1.67;0.70;;;13.90;99.90;;;;;;5046953;28;20115;-35
2022/09/21 10:13:10;;;;;;;5.03;0.75;;;14.00;99.90;;;;;;5047596;28;20104;-36
2022/09/21 10:15:47;;;;;;;2.17;0.50;;;14.10;99.90;;;;;;5046091;28;20025;-36
2022/09/21 10:18:20;;;;;;;3.13;0.77;;;14.30;99.90;;;;;;5046614;28;20044;-35
2022/09/21 10:21:22;;;;;;;1.48;0.63;;;14.30;99.90;;;;;;5047435;28;20124;-34
2022/09/21 10:23:57;;;;;;;3.08;0.60;;;14.40;99.90;;;;;;5019369;28;20583;-34
2022/09/21 10:26:22;;;;;;;1.67;0.50;;;14.50;99.90;;;;;;5043000;28;20017;-35
2022/09/21 10:29:16;;;;;;;1.98;0.68;;;14.50;99.90;;;;;;5046072;28;20031;-34
2022/09/21 10:31:53;;;;;;;1.52;0.57;;;14.60;99.90;;;;;;5046771;28;20029;-34
2022/09/21 10:34:19;;;;;;;1.98;0.50;;;14.70;99.90;;;;;;5046356;28;20144;-34
2022/09/21 10:36:50;;;;;;;1.15;0.70;;;14.70;99.90;;;;;;5046029;28;20293;-35
2022/09/21 10:39:25;;;;;;;2.15;0.43;;;14.80;99.90;;;;;;5046115;28;20029;-34
2022/09/21 10:41:58;;;;;;;1.25;0.50;;;14.90;99.90;;;;;;5046824;28;20067;-35
2022/09/21 10:44:33;;;;;;;2.67;0.80;;;15.00;99.90;;;;;;5025498;28;20455;-34
2022/09/21 10:47:17;;;;;;;1.88;0.40;;;15.10;99.90;;;;;;5042377;28;20025;-34
2022/09/21 10:49:54;;;;;;;3.17;0.70;;;15.20;99.90;;;;;;5026380;28;20028;-35
2022/09/21 10:52:37;;;;;;;2.25;0.57;;;15.30;99.90;;;;;;5043931;28;20025;-35
2022/09/21 10:55:03;;;;;;;;;;;15.50;99.90;;;;;;5046921;28;20100;-34
2022/09/21 10:57:31;;;;;;;1.88;0.70;;;15.50;99.90;;;;;;5044445;28;20019;-35
2022/09/21 10:59:56;;;;;;;1.13;0.50;;;15.60;99.90;;;;;;5046851;28;20057;-35
2022/09/21 11:02:37;;;;;;;1.88;0.57;;;15.80;99.90;;;;;;5045875;28;20036;-34
2022/09/21 11:05:15;;;;;;;1.45;0.43;;;15.90;99.90;;;;;;5025669;28;20054;-36
2022/09/21 11:07:48;;;;;;;1.33;0.40;;;16.00;99.90;;;;;;5042308;28;20328;-36
2022/09/21 11:10:35;;;;;;;1.75;0.57;;;16.00;99.90;;;;;;5026128;28;20469;-35
2022/09/21 11:13:13;;;;;;;2.60;0.55;;;16.10;99.90;;;;;;5042515;28;20344;-35
2022/09/21 11:15:51;;;;;;;1.95;0.40;;;16.20;99.90;;;;;;5046094;28;20107;-36
2022/09/21 11:18:25;;;;;;;2.00;0.55;;;16.30;99.90;;;;;;5044835;28;20032;-35
2022/09/21 11:21:13;;;;;;;1.83;0.60;;;16.50;99.90;;;;;;5046784;28;20021;-35
2022/09/21 11:23:50;;;;;;;1.67;0.60;;;16.50;99.90;;;;;;5045753;28;20029;-36
2022/09/21 11:26:47;;;;;;;3.00;0.38;;;16.60;99.90;;;;;;5045207;28;20452;-35
2022/09/21 11:29:27;;;;;;;1.05;0.40;;;16.70;99.90;;;;;;5043405;28;20033;-37
2022/09/21 11:32:21;;;;;;;1.27;0.43;;;16.80;99.90;;;;;;5044966;28;20051;-35
2022/09/21 11:34:58;;;;;;;1.73;0.60;;;16.80;99.90;;;;;;5035385;28;20025;-36
2022/09/21 11:37:24;;;;;;;1.40;0.40;;;16.80;99.90;;;;;;5030558;28;20052;-36
2022/09/21 11:40:21;;;;;;;1.00;0.40;;;16.80;99.90;;;;;;5045730;28;20112;-36
2022/09/21 11:42:58;;;;;;;1.67;0.40;;;16.80;99.90;;;;;;5046101;28;20315;-34
2022/09/21 11:45:50;;;;;;;1.05;0.40;;;16.80;99.90;;;;;;5045448;28;20095;-34
2022/09/21 11:48:37;;;;;;;1.85;0.55;;;16.80;99.90;;;;;;5044272;28;20025;-35
2022/09/21 11:51:23;;;;;;;1.13;0.60;;;16.70;99.90;;;;;;5045671;28;20395;-35
2022/09/21 11:54:14;;;;;;;2.13;0.38;;;16.70;99.90;;;;;;5044560;28;20905;-35
2022/09/21 11:56:51;;;;;;;0.65;0.40;;;16.70;99.90;;;;;;5045456;28;20017;-35
2022/09/21 11:59:38;;;;;;;1.45;0.50;;;16.70;99.90;;;;;;5044273;28;20053;-35
2022/09/21 12:02:43;;;;;;;3.55;0.50;;;16.70;99.80;;;;;;5025023;28;20659;-35
2022/09/21 12:05:42;;;;;;;2.33;0.80;;;16.70;99.70;;;;;;5043670;28;20044;-35
2022/09/21 12:08:34;;;;;;;1.77;0.40;;;16.70;99.50;;;;;;5044370;28;20530;-35
2022/09/21 12:11:12;;;;;;;1.65;0.50;;;16.80;99.50;;;;;;5034991;28;20033;-34
2022/09/21 12:13:50;;;;;;;2.13;0.50;;;16.70;99.50;;;;;;5045354;28;20152;-35
2022/09/21 12:16:30;;;;;;;1.80;0.70;;;16.80;99.40;;;;;;5035389;28;20029;-35
2022/09/21 12:19:15;;;;;;;5.20;0.65;;;16.80;99.20;;;;;;5044971;28;20037;-35
2022/09/21 12:21:45;;;;;;;1.42;0.50;;;16.70;99.10;;;;;;5044246;28;20447;-35
2022/09/21 12:24:21;;;;;;;1.27;0.50;;;16.70;99.10;;;;;;5043879;28;20039;-34
2022/09/21 12:26:52;;;;;;;1.38;0.50;;;16.60;99.20;;;;;;5045070;28;20054;-34
2022/09/21 12:29:42;;;;;;;1.00;0.50;;;16.60;99.20;;;;;;5043446;28;20108;-35
2022/09/21 12:32:54;;;;;;;1.27;0.50;;;16.60;99.10;;;;;;5044685;28;20083;-35
2022/09/21 12:35:27;;;;;;;2.28;0.70;;;16.60;99.10;;;;;;5022951;28;20033;-34
2022/09/21 12:37:53;;;;;;;;;;;16.60;99.10;;;;;;5045650;28;20050;-36
2022/09/21 12:40:37;;;;;;;2.08;0.30;;;16.50;99.20;;;;;;5044053;28;19915;-35
2022/09/21 12:43:15;;;;;;;0.95;0.40;;;16.50;99.40;;;;;;5044032;28;20489;-35
2022/09/21 12:45:46;;;;;;;1.27;0.50;;;16.50;99.00;;;;;;5044908;28;20013;-35
2022/09/21 12:48:32;;;;;;;0.80;0.60;;;16.50;98.60;;;;;;5044355;28;20049;-36
2022/09/21 12:51:10;;;;;;;1.48;0.52;;;16.60;98.60;;;;;;5044052;28;20029;-34
2022/09/21 12:53:37;;;;;;;1.80;0.68;;;16.60;98.40;;;;;;5045174;28;20155;-35
2022/09/21 12:56:09;;;;;;;1.27;0.50;;;16.70;98.20;;;;;;5044717;28;20036;-33
2022/09/21 12:59:19;;;;;;;1.52;0.50;;;16.80;98.10;;;;;;5044148;28;20033;-33
2022/09/21 13:01:59;;;;;;;0.90;0.47;;;16.90;97.90;;;;;;5038299;28;20040;-34
2022/09/21 13:04:36;;;;;;;1.45;0.60;;;17.10;97.80;;;;;;5043527;28;20052;-35
2022/09/21 13:07:20;;;;;;;1.45;0.60;;;17.20;97.60;;;;;;5044800;28;20029;-34
2022/09/21 13:09:48;;;;;;;1.38;0.65;;;17.20;97.40;;;;;;5044522;28;20037;-33
2022/09/21 13:12:28;;;;;;;1.55;0.93;;;17.30;97.20;;;;;;5043272;28;20025;-35
2022/09/21 13:15:26;;;;;;;1.23;0.57;;;17.40;97.00;;;;;;5044374;28;20518;-35
2022/09/21 13:18:20;;;;;;;1.67;0.57;;;17.60;96.90;;;;;;5036935;28;20052;-36
2022/09/21 13:20:47;;;;;;;0.55;0.40;;;17.70;96.60;;;;;;5043717;28;20443;-35